Time;durP1;ratioP1;P1;durP2;ratioP2;P2;SDS_P1;SDS_P2;PMS_P1;PMS_P2;Temp;Humidity;BMP_temperature;BMP_pressure;BME280_temperature;BME280_humidity;BME280_pressure;Samples;Min_cycle;Max_cycle;Signal;HPM_P1;HPM_P2
2024/03/28 00:00:56;;;;;;;21.35;13.73;;;8.10;99.90;;;;;;5043362;28;20494;-79
2024/03/28 00:03:22;;;;;;;20.58;14.10;;;8.40;99.90;;;;;;5032790;28;20048;-79
2024/03/28 00:05:58;;;;;;;18.83;13.65;;;8.20;99.90;;;;;;5059584;28;20036;-78
2024/03/28 00:08:24;;;;;;;20.30;13.98;;;8.10;99.90;;;;;;5025055;28;20048;-78
2024/03/28 00:10:51;;;;;;;21.98;13.80;;;8.10;99.90;;;;;;5033979;28;20044;-78
2024/03/28 00:13:18;;;;;;;20.25;13.73;;;8.10;99.90;;;;;;5056385;28;20044;-78
2024/03/28 00:15:44;;;;;;;19.65;13.82;;;8.10;99.90;;;;;;5035107;28;20095;-78
2024/03/28 00:18:10;;;;;;;20.58;14.27;;;8.10;99.90;;;;;;5026320;28;20045;-78
2024/03/28 00:20:36;;;;;;;18.13;13.93;;;8.10;99.90;;;;;;5051606;28;20504;-78
2024/03/28 00:23:02;;;;;;;21.63;14.27;;;8.10;99.90;;;;;;5032777;28;20091;-78
2024/03/28 00:25:30;;;;;;;23.35;14.15;;;8.10;99.90;;;;;;5050278;28;20045;-78
2024/03/28 00:27:57;;;;;;;21.33;14.23;;;8.00;99.90;;;;;;5029647;28;20095;-78
2024/03/28 00:30:23;;;;;;;22.88;14.50;;;8.10;99.90;;;;;;5031320;28;20048;-78
2024/03/28 00:32:49;;;;;;;21.65;14.73;;;8.00;99.90;;;;;;5076036;22;20408;-77
2024/03/28 00:35:18;;;;;;;21.23;14.50;;;8.00;99.90;;;;;;5049228;28;20041;-76
2024/03/28 00:37:44;;;;;;;23.92;14.30;;;8.00;99.90;;;;;;5050673;28;20450;-77
2024/03/28 00:40:11;;;;;;;20.27;14.68;;;8.00;99.90;;;;;;5050526;28;20029;-77
2024/03/28 00:42:37;;;;;;;20.20;14.15;;;8.00;99.90;;;;;;5038008;28;20072;-77
2024/03/28 00:45:03;;;;;;;20.10;13.90;;;8.00;99.90;;;;;;5034058;28;20067;-77
2024/03/28 00:47:28;;;;;;;23.25;15.30;;;8.00;99.90;;;;;;5037198;28;20029;-77
2024/03/28 00:49:54;;;;;;;20.27;14.63;;;8.00;99.90;;;;;;5032292;28;20145;-77
2024/03/28 00:52:19;;;;;;;20.38;14.05;;;8.00;99.90;;;;;;5033983;28;20039;-77
2024/03/28 00:54:46;;;;;;;22.52;14.80;;;8.00;99.90;;;;;;5034568;28;20067;-77
2024/03/28 00:57:12;;;;;;;20.52;14.95;;;8.00;99.90;;;;;;5037322;28;20484;-77
2024/03/28 00:59:37;;;;;;;19.83;14.30;;;8.00;99.90;;;;;;5031018;28;20172;-77
2024/03/28 01:02:03;;;;;;;21.45;14.50;;;8.00;99.90;;;;;;5031005;28;20041;-77
2024/03/28 01:04:29;;;;;;;19.95;14.88;;;8.00;99.90;;;;;;5026269;28;20053;-77
2024/03/28 01:06:54;;;;;;;20.92;14.88;;;7.90;99.90;;;;;;5021355;28;20033;-77
2024/03/28 01:09:20;;;;;;;21.67;14.98;;;7.90;99.90;;;;;;5029070;28;20026;-77
2024/03/28 01:11:46;;;;;;;21.55;15.50;;;7.90;99.90;;;;;;5031087;28;20469;-77
2024/03/28 01:14:12;;;;;;;22.98;14.88;;;7.90;99.90;;;;;;5030230;28;20045;-77
2024/03/28 01:16:37;;;;;;;21.13;15.10;;;7.90;99.90;;;;;;5036324;28;20052;-77
2024/03/28 01:19:03;;;;;;;21.00;14.73;;;7.90;99.90;;;;;;5039122;28;20033;-77
2024/03/28 01:21:28;;;;;;;26.50;15.13;;;7.90;99.90;;;;;;5034572;28;20053;-77
2024/03/28 01:23:54;;;;;;;21.80;15.27;;;7.90;99.90;;;;;;5031487;28;20069;-77
2024/03/28 01:26:20;;;;;;;21.17;15.43;;;7.90;99.90;;;;;;5027279;28;20429;-77
2024/03/28 01:28:45;;;;;;;22.25;15.63;;;7.90;99.90;;;;;;5035004;28;20040;-77
2024/03/28 01:31:11;;;;;;;21.23;15.50;;;7.90;99.90;;;;;;5029259;28;20037;-77
2024/03/28 01:33:36;;;;;;;19.65;15.30;;;7.90;99.90;;;;;;5030570;28;20506;-77
2024/03/28 01:36:02;;;;;;;19.98;15.13;;;7.90;99.90;;;;;;5036237;28;20065;-77
2024/03/28 01:38:28;;;;;;;20.55;14.80;;;7.80;99.90;;;;;;5032644;28;20544;-77
2024/03/28 01:40:54;;;;;;;20.27;14.82;;;7.80;99.90;;;;;;5036961;28;20057;-77
2024/03/28 01:43:20;;;;;;;20.92;15.18;;;7.80;99.90;;;;;;5030198;28;20045;-77
2024/03/28 01:45:46;;;;;;;20.92;14.68;;;7.90;99.90;;;;;;5033345;28;20044;-77
2024/03/28 01:48:13;;;;;;;21.40;14.65;;;7.80;99.90;;;;;;5034918;28;20503;-77
2024/03/28 01:50:40;;;;;;;23.75;15.60;;;7.80;99.90;;;;;;5011276;28;20152;-77
2024/03/28 01:53:06;;;;;;;23.67;15.30;;;7.80;99.90;;;;;;5013197;28;20052;-77
2024/03/28 01:55:32;;;;;;;23.33;15.27;;;7.80;99.90;;;;;;5035807;28;20041;-77
2024/03/28 01:58:01;;;;;;;23.40;16.63;;;7.80;99.90;;;;;;5038704;28;20491;-77
2024/03/28 02:00:28;;;;;;;21.15;15.10;;;7.80;99.90;;;;;;5027607;28;20038;-77
2024/03/28 02:02:57;;;;;;;20.60;15.20;;;7.80;99.90;;;;;;5032670;28;20120;-77
2024/03/28 02:05:23;;;;;;;24.70;15.57;;;7.80;99.90;;;;;;5032846;28;20109;-77
2024/03/28 02:07:51;;;;;;;21.52;15.80;;;7.80;99.90;;;;;;5033844;28;20052;-77
2024/03/28 02:10:17;;;;;;;22.48;16.17;;;7.80;99.90;;;;;;5032085;28;20179;-77
2024/03/28 02:12:43;;;;;;;21.50;15.77;;;7.80;99.90;;;;;;5033650;28;20036;-77
2024/03/28 02:15:09;;;;;;;21.35;16.20;;;7.80;99.90;;;;;;5034301;28;20068;-76
2024/03/28 02:17:56;;;;;;;22.35;16.48;;;7.80;99.90;;;;;;5035214;28;20034;-76
2024/03/28 02:20:22;;;;;;;21.63;16.83;;;7.90;99.90;;;;;;5025595;28;20045;-77
2024/03/28 02:22:47;;;;;;;22.15;15.98;;;7.70;99.90;;;;;;5031335;28;20037;-77
2024/03/28 02:25:13;;;;;;;22.25;16.80;;;7.70;99.90;;;;;;5037437;28;20382;-77
2024/03/28 02:27:40;;;;;;;22.80;16.92;;;7.70;99.90;;;;;;5040141;28;20095;-77
2024/03/28 02:30:10;;;;;;;23.70;17.55;;;7.70;99.90;;;;;;5029493;28;20680;-76
2024/03/28 02:32:36;;;;;;;26.45;18.05;;;7.70;99.90;;;;;;5031330;28;20037;-77
2024/03/28 02:35:03;;;;;;;25.15;17.65;;;7.70;99.90;;;;;;5035526;28;20037;-77
2024/03/28 02:37:30;;;;;;;27.27;17.73;;;7.70;99.90;;;;;;5029099;28;20485;-77
2024/03/28 02:39:55;;;;;;;23.50;16.77;;;7.50;99.90;;;;;;5032941;28;20041;-77
2024/03/28 02:42:21;;;;;;;22.98;17.02;;;7.70;99.90;;;;;;5036322;28;20045;-77
2024/03/28 02:44:47;;;;;;;24.08;17.58;;;7.70;99.90;;;;;;5032028;28;20412;-77
2024/03/28 02:47:13;;;;;;;23.45;17.02;;;7.70;99.90;;;;;;5029466;28;20037;-78
2024/03/28 02:49:39;;;;;;;22.73;17.15;;;7.70;99.90;;;;;;5045013;28;20045;-77
2024/03/28 02:52:05;;;;;;;21.60;16.75;;;7.70;99.90;;;;;;5033670;28;20120;-77
2024/03/28 02:54:31;;;;;;;27.67;17.85;;;7.70;99.90;;;;;;5033912;28;20045;-77
2024/03/28 02:57:01;;;;;;;26.13;18.15;;;7.70;99.90;;;;;;5028694;28;20060;-77
2024/03/28 02:59:27;;;;;;;26.90;17.35;;;7.70;99.90;;;;;;5035852;28;20045;-77
2024/03/28 03:01:53;;;;;;;22.58;17.10;;;7.70;99.90;;;;;;5017754;28;20032;-77
2024/03/28 03:04:18;;;;;;;25.50;18.27;;;7.60;99.90;;;;;;5040974;28;20041;-77
2024/03/28 03:06:44;;;;;;;25.48;17.23;;;7.70;99.90;;;;;;5034864;28;20078;-77
2024/03/28 03:09:09;;;;;;;24.17;17.88;;;7.60;99.90;;;;;;5017440;28;20038;-77
2024/03/28 03:11:35;;;;;;;23.05;17.50;;;7.60;99.90;;;;;;5039079;28;20060;-77
2024/03/28 03:14:00;;;;;;;23.38;17.58;;;7.70;99.90;;;;;;5035544;28;20052;-77
2024/03/28 03:16:26;;;;;;;24.95;18.60;;;7.60;99.90;;;;;;5035150;28;20060;-77
2024/03/28 03:18:52;;;;;;;25.85;17.60;;;7.70;99.90;;;;;;5032472;28;20083;-77
2024/03/28 03:21:18;;;;;;;23.38;17.73;;;7.70;99.90;;;;;;5026835;28;20079;-77
2024/03/28 03:23:49;;;;;;;30.58;17.70;;;7.60;99.90;;;;;;5032828;28;20042;-77
2024/03/28 03:26:24;;;;;;;22.48;18.08;;;7.60;99.90;;;;;;5032042;28;20071;-77
2024/03/28 03:34:36;;;;;;;23.42;17.52;;;7.60;99.90;;;;;;5037530;28;20128;-77
2024/03/28 03:37:03;;;;;;;25.00;17.95;;;7.60;99.90;;;;;;5042702;28;20477;-77
2024/03/28 03:39:29;;;;;;;23.77;18.08;;;7.60;99.90;;;;;;5031988;28;20517;-77
2024/03/28 03:41:56;;;;;;;25.67;17.92;;;7.60;99.90;;;;;;5024660;28;20041;-77
2024/03/28 03:44:21;;;;;;;26.67;18.80;;;7.60;99.90;;;;;;5033797;28;20560;-77
2024/03/28 03:46:47;;;;;;;26.60;18.58;;;7.60;99.90;;;;;;5031711;28;20037;-77
2024/03/28 03:49:12;;;;;;;25.92;18.50;;;7.60;99.90;;;;;;5031859;28;20037;-77
2024/03/28 03:51:38;;;;;;;27.08;19.00;;;7.60;99.90;;;;;;5032510;28;20034;-77
2024/03/28 03:54:04;;;;;;;25.48;18.08;;;7.50;99.90;;;;;;5032276;28;20041;-77
2024/03/28 03:56:30;;;;;;;26.52;17.90;;;7.50;99.90;;;;;;5030444;28;20108;-77
2024/03/28 03:58:56;;;;;;;25.38;18.20;;;7.50;99.90;;;;;;5030822;28;20069;-77
2024/03/28 04:01:23;;;;;;;25.42;18.33;;;7.50;99.90;;;;;;5035067;28;20041;-77
2024/03/28 04:03:49;;;;;;;25.80;18.38;;;7.50;99.90;;;;;;5045318;28;20084;-77
2024/03/28 04:06:15;;;;;;;26.73;18.10;;;7.50;99.90;;;;;;5034036;28;20037;-77
2024/03/28 04:08:41;;;;;;;24.25;18.65;;;7.50;99.90;;;;;;5032503;28;20037;-77
2024/03/28 04:11:06;;;;;;;22.67;17.02;;;7.50;99.90;;;;;;5041728;28;20040;-77
2024/03/28 04:13:32;;;;;;;26.50;18.45;;;7.50;99.90;;;;;;5031205;28;20713;-77
2024/03/28 04:15:57;;;;;;;25.02;18.77;;;7.50;99.90;;;;;;5030651;28;20128;-77
2024/03/28 04:18:23;;;;;;;27.85;18.63;;;8.30;99.90;;;;;;5031325;28;20144;-77
2024/03/28 04:20:49;;;;;;;27.77;18.40;;;7.40;99.90;;;;;;5034114;28;20041;-77
2024/03/28 04:23:14;;;;;;;24.23;18.02;;;7.50;99.90;;;;;;5031536;28;20099;-77
2024/03/28 04:25:40;;;;;;;25.00;18.23;;;7.40;99.90;;;;;;5033468;28;20393;-77
2024/03/28 04:28:06;;;;;;;23.33;17.67;;;7.40;99.90;;;;;;5046858;28;20045;-77
2024/03/28 04:30:34;;;;;;;31.75;18.27;;;7.40;99.90;;;;;;5033526;28;20036;-77
2024/03/28 04:33:00;;;;;;;24.38;18.15;;;7.50;99.90;;;;;;5037338;28;20029;-77
2024/03/28 04:35:25;;;;;;;26.02;18.45;;;7.50;99.90;;;;;;5043239;28;20480;-77
2024/03/28 04:37:52;;;;;;;23.17;17.55;;;7.50;99.90;;;;;;5031565;28;20043;-77
2024/03/28 04:40:18;;;;;;;25.40;17.67;;;7.50;99.90;;;;;;5031788;28;20559;-77
2024/03/28 04:42:50;;;;;;;24.30;17.88;;;7.50;99.90;;;;;;5031957;28;20035;-77
2024/03/28 04:45:20;;;;;;;24.13;17.65;;;7.50;99.90;;;;;;5044951;28;20508;-77
2024/03/28 04:47:49;;;;;;;26.95;17.85;;;7.50;99.90;;;;;;5037668;28;20097;-77
2024/03/28 04:50:20;;;;;;;24.92;17.33;;;7.50;99.90;;;;;;5029504;28;20033;-77
2024/03/28 04:52:46;;;;;;;25.90;17.95;;;7.50;99.90;;;;;;5027924;28;20426;-77
2024/03/28 04:55:12;;;;;;;21.67;16.98;;;7.50;99.90;;;;;;5028996;28;20051;-77
2024/03/28 04:57:38;;;;;;;23.00;17.33;;;7.50;99.90;;;;;;5028348;28;20382;-77
2024/03/28 05:00:06;;;;;;;24.10;17.33;;;7.50;99.90;;;;;;5038700;28;20038;-77
2024/03/28 05:02:32;;;;;;;26.58;16.65;;;7.50;99.90;;;;;;5038349;28;20045;-77
2024/03/28 05:04:58;;;;;;;22.58;16.67;;;7.60;99.90;;;;;;5039914;28;20415;-76
2024/03/28 05:07:24;;;;;;;25.90;17.38;;;7.60;99.90;;;;;;5030244;28;20602;-77
2024/03/28 05:09:50;;;;;;;20.92;15.10;;;7.60;99.90;;;;;;5034315;28;20041;-77
2024/03/28 05:12:15;;;;;;;22.48;16.40;;;7.60;99.90;;;;;;5032269;28;20041;-77
2024/03/28 05:14:41;;;;;;;23.00;16.35;;;7.60;99.90;;;;;;5030428;28;20072;-77
2024/03/28 05:17:07;;;;;;;24.77;17.20;;;7.50;99.90;;;;;;5031535;28;20069;-77
2024/03/28 05:19:33;;;;;;;23.65;16.40;;;7.60;99.90;;;;;;5014988;28;20440;-77
2024/03/28 05:22:00;;;;;;;28.95;17.88;;;7.50;99.90;;;;;;5018133;28;20395;-77
2024/03/28 05:24:25;;;;;;;22.00;16.50;;;7.50;99.90;;;;;;5029655;28;20065;-77
2024/03/28 05:26:51;;;;;;;22.23;15.75;;;7.50;99.90;;;;;;5029834;28;20080;-78
2024/03/28 05:29:17;;;;;;;25.52;16.48;;;7.50;99.90;;;;;;5027803;28;20029;-76
2024/03/28 05:31:42;;;;;;;22.05;16.42;;;7.50;99.90;;;;;;5033544;28;20029;-77
2024/03/28 05:34:08;;;;;;;23.50;16.25;;;7.50;99.90;;;;;;5039648;28;20179;-76
2024/03/28 05:36:37;;;;;;;24.98;16.58;;;7.40;99.90;;;;;;5035943;28;20061;-76
2024/03/28 05:39:04;;;;;;;23.98;14.80;;;7.40;99.90;;;;;;5043765;28;20042;-76
2024/03/28 05:41:33;;;;;;;20.77;15.30;;;7.40;99.90;;;;;;5035734;28;20171;-76
2024/03/28 05:43:59;;;;;;;25.33;15.93;;;7.40;99.90;;;;;;5034741;28;20042;-75
2024/03/28 05:46:25;;;;;;;24.60;16.77;;;7.40;99.90;;;;;;5029558;28;20490;-76
2024/03/28 05:48:51;;;;;;;20.77;15.48;;;7.40;99.90;;;;;;5037288;28;20029;-76
2024/03/28 05:51:17;;;;;;;24.13;15.73;;;7.40;99.90;;;;;;5038447;28;20045;-76
2024/03/28 05:53:45;;;;;;;25.42;15.80;;;7.40;99.90;;;;;;5030615;28;20067;-77
2024/03/28 05:56:12;;;;;;;21.85;14.88;;;7.40;99.90;;;;;;5029141;28;20048;-77
2024/03/28 05:58:37;;;;;;;23.60;15.15;;;7.40;99.90;;;;;;5030117;28;20710;-76
2024/03/28 06:01:04;;;;;;;22.30;15.32;;;7.40;99.90;;;;;;5031034;28;20045;-76
2024/03/28 06:03:30;;;;;;;22.08;15.35;;;7.40;99.90;;;;;;5027766;28;20053;-76
2024/03/28 06:05:55;;;;;;;23.08;15.60;;;7.40;99.90;;;;;;5026686;28;20043;-76
2024/03/28 06:08:21;;;;;;;22.00;15.65;;;7.40;99.90;;;;;;5034803;28;20025;-77
2024/03/28 06:10:47;;;;;;;27.02;15.68;;;7.40;99.90;;;;;;5035246;28;20037;-76
2024/03/28 06:13:12;;;;;;;24.30;15.93;;;7.40;99.90;;;;;;5028890;28;20406;-76
2024/03/28 06:15:38;;;;;;;22.45;15.32;;;7.40;99.90;;;;;;5036045;28;20045;-77
2024/03/28 06:18:04;;;;;;;25.70;15.45;;;7.60;99.90;;;;;;5035707;28;20054;-77
2024/03/28 06:20:30;;;;;;;23.92;16.00;;;7.40;99.90;;;;;;5044880;28;20551;-77
2024/03/28 06:22:56;;;;;;;24.73;15.93;;;7.50;99.90;;;;;;5032985;28;20045;-77
2024/03/28 06:25:21;;;;;;;25.73;16.13;;;7.50;99.90;;;;;;5036983;28;20052;-77
2024/03/28 06:27:47;;;;;;;23.45;16.95;;;7.50;99.90;;;;;;5046657;28;20093;-77
2024/03/28 06:30:25;;;;;;;27.75;15.55;;;7.50;99.90;;;;;;5033124;28;20117;-77
2024/03/28 06:32:51;;;;;;;24.38;16.02;;;7.60;99.90;;;;;;5052440;22;20117;-79
2024/03/28 06:35:17;;;;;;;26.38;16.40;;;8.10;99.90;;;;;;5034295;28;20507;-79
2024/03/28 06:37:43;;;;;;;24.92;15.75;;;7.60;99.90;;;;;;5055366;28;20124;-80
2024/03/28 06:40:09;;;;;;;21.40;15.10;;;7.70;99.90;;;;;;5056701;28;20119;-79
2024/03/28 06:42:35;;;;;;;22.65;16.30;;;7.70;99.90;;;;;;5052752;28;20044;-78
2024/03/28 06:45:01;;;;;;;22.65;15.82;;;7.70;99.90;;;;;;5048758;28;20048;-78
2024/03/28 06:47:26;;;;;;;25.45;15.65;;;7.80;99.90;;;;;;5073250;28;20539;-79
2024/03/28 06:49:52;;;;;;;23.25;15.35;;;7.90;99.90;;;;;;5037634;28;20558;-79
2024/03/28 06:52:18;;;;;;;24.73;15.98;;;7.80;99.90;;;;;;5056014;28;21135;-79
2024/03/28 06:54:43;;;;;;;24.67;16.40;;;7.90;99.90;;;;;;5043230;28;20063;-79
2024/03/28 06:57:09;;;;;;;23.45;16.10;;;7.90;99.90;;;;;;5063496;28;20083;-79
2024/03/28 06:59:35;;;;;;;23.70;16.02;;;7.90;99.90;;;;;;5030851;28;20075;-79
2024/03/28 07:02:01;;;;;;;22.98;16.52;;;8.00;99.90;;;;;;5065414;28;20068;-78
2024/03/28 07:04:26;;;;;;;20.98;14.68;;;8.00;99.90;;;;;;5047134;28;20045;-78
2024/03/28 07:06:52;;;;;;;27.83;16.27;;;8.00;99.90;;;;;;5046592;28;20412;-78
2024/03/28 07:09:17;;;;;;;24.52;15.85;;;8.10;99.90;;;;;;5043309;28;20036;-79
2024/03/28 07:11:45;;;;;;;23.50;15.68;;;8.10;99.90;;;;;;5042411;28;20099;-79
2024/03/28 07:14:12;;;;;;;24.30;15.13;;;8.10;99.90;;;;;;5046626;28;20055;-79
2024/03/28 07:16:38;;;;;;;23.58;15.00;;;8.10;99.90;;;;;;5025593;28;20412;-79
2024/03/28 07:19:04;;;;;;;23.90;15.13;;;8.10;99.90;;;;;;5060541;28;20118;-79
2024/03/28 07:21:29;;;;;;;23.98;13.65;;;8.20;99.90;;;;;;5048386;28;20128;-78
2024/03/28 07:23:55;;;;;;;23.05;14.68;;;8.20;99.90;;;;;;5042081;28;20063;-79
2024/03/28 07:26:21;;;;;;;22.20;14.85;;;8.30;99.90;;;;;;5050032;28;20040;-78
2024/03/28 07:28:46;;;;;;;21.10;14.40;;;8.30;99.90;;;;;;5041627;28;20025;-79
2024/03/28 07:31:12;;;;;;;21.48;13.80;;;8.40;99.90;;;;;;5027236;28;20029;-78
2024/03/28 07:33:37;;;;;;;24.40;14.15;;;8.40;99.90;;;;;;5024541;28;20055;-79
2024/03/28 07:36:04;;;;;;;21.23;13.80;;;8.40;99.90;;;;;;5041951;28;20131;-78
2024/03/28 07:38:29;;;;;;;19.10;13.00;;;8.50;99.90;;;;;;5045473;28;20049;-78
2024/03/28 07:40:55;;;;;;;22.60;13.45;;;8.50;99.90;;;;;;5048598;28;20087;-78
2024/03/28 07:43:21;;;;;;;20.45;13.30;;;8.60;99.90;;;;;;5043298;28;20033;-78
2024/03/28 07:45:47;;;;;;;19.50;13.60;;;8.60;99.90;;;;;;5052024;28;20452;-79
2024/03/28 07:48:13;;;;;;;21.25;13.50;;;8.60;99.90;;;;;;5042216;28;20029;-78
2024/03/28 07:50:39;;;;;;;24.77;13.95;;;8.70;99.90;;;;;;5049739;28;20028;-78
2024/03/28 07:53:05;;;;;;;21.95;13.13;;;8.80;99.90;;;;;;5041293;28;20043;-78
2024/03/28 07:55:31;;;;;;;20.63;12.90;;;8.80;99.90;;;;;;5046141;28;20036;-78
2024/03/28 07:57:57;;;;;;;19.08;12.95;;;8.80;99.90;;;;;;5040313;28;20468;-78
2024/03/28 08:00:23;;;;;;;20.98;13.75;;;8.80;99.90;;;;;;5044855;28;20033;-78
2024/03/28 08:02:49;;;;;;;17.65;11.70;;;8.90;99.90;;;;;;5040000;28;20623;-78
2024/03/28 08:05:16;;;;;;;17.08;11.88;;;8.80;99.90;;;;;;5054938;28;20041;-78
2024/03/28 08:07:42;;;;;;;17.13;12.38;;;8.80;99.90;;;;;;5040247;28;20052;-78
2024/03/28 08:10:09;;;;;;;17.92;10.40;;;8.70;99.90;;;;;;5041446;28;20048;-78
2024/03/28 08:12:36;;;;;;;15.52;10.18;;;8.70;99.90;;;;;;5022156;28;20485;-78
2024/03/28 08:15:02;;;;;;;20.52;10.27;;;8.70;99.90;;;;;;5040673;28;20051;-78
2024/03/28 08:17:30;;;;;;;14.23;9.75;;;8.70;99.90;;;;;;5045116;28;20707;-78
2024/03/28 08:19:55;;;;;;;16.23;9.80;;;8.70;99.90;;;;;;5049436;28;20644;-78
2024/03/28 08:22:21;;;;;;;14.82;9.20;;;8.70;99.90;;;;;;5038032;28;20036;-78
2024/03/28 08:24:47;;;;;;;11.80;8.20;;;8.80;99.90;;;;;;5038877;28;20055;-78
2024/03/28 08:27:14;;;;;;;11.60;8.05;;;9.10;99.90;;;;;;5041200;28;20043;-78
2024/03/28 08:29:39;;;;;;;13.07;8.38;;;8.90;99.90;;;;;;5043112;28;20500;-78
2024/03/28 08:32:06;;;;;;;11.65;7.85;;;9.10;99.90;;;;;;5042631;28;20131;-78
2024/03/28 08:34:32;;;;;;;11.90;7.88;;;9.10;99.90;;;;;;5054063;28;20045;-78
2024/03/28 08:36:57;;;;;;;13.68;8.02;;;9.30;99.90;;;;;;5050451;28;20519;-78
2024/03/28 08:39:24;;;;;;;12.90;7.70;;;9.20;99.90;;;;;;5067175;28;20028;-78
2024/03/28 08:41:52;;;;;;;11.45;7.40;;;9.20;99.90;;;;;;5054354;28;20481;-78
2024/03/28 08:44:21;;;;;;;11.27;6.88;;;9.20;99.90;;;;;;5058462;28;20470;-78
2024/03/28 08:46:47;;;;;;;10.68;6.88;;;9.30;99.90;;;;;;5049810;28;20055;-78
2024/03/28 08:49:14;;;;;;;9.63;6.75;;;9.30;99.90;;;;;;5064773;28;20033;-79
2024/03/28 08:51:40;;;;;;;12.02;7.00;;;9.40;99.90;;;;;;5046936;28;20044;-78
2024/03/28 08:54:08;;;;;;;9.45;6.20;;;9.40;99.90;;;;;;5040215;28;20044;-78
2024/03/28 08:56:35;;;;;;;12.02;7.00;;;9.60;99.90;;;;;;5062487;28;20094;-78
2024/03/28 08:59:01;;;;;;;9.13;6.20;;;9.50;99.90;;;;;;5061233;28;20412;-78
2024/03/28 09:01:27;;;;;;;10.25;6.68;;;9.50;99.90;;;;;;5045275;28;20053;-78
2024/03/28 09:03:53;;;;;;;7.78;5.95;;;9.50;99.90;;;;;;5059501;28;20374;-78
2024/03/28 09:06:20;;;;;;;9.48;5.60;;;9.60;99.90;;;;;;5058872;28;20120;-78
2024/03/28 09:08:46;;;;;;;8.43;5.43;;;9.60;99.90;;;;;;5053189;28;20033;-78
2024/03/28 09:11:12;;;;;;;11.60;5.35;;;9.70;99.90;;;;;;5057635;28;20033;-78
2024/03/28 09:13:38;;;;;;;6.68;4.80;;;9.90;99.90;;;;;;5036560;28;20099;-79
2024/03/28 09:16:06;;;;;;;5.55;4.28;;;10.00;99.90;;;;;;5052795;28;20036;-78
2024/03/28 09:18:32;;;;;;;7.05;4.47;;;10.10;99.90;;;;;;5053864;28;20052;-78
2024/03/28 09:21:08;;;;;;;5.68;4.03;;;10.30;99.90;;;;;;5042557;28;20046;-78
2024/03/28 09:23:34;;;;;;;7.05;4.22;;;10.30;99.90;;;;;;5053475;28;20163;-78
2024/03/28 09:26:00;;;;;;;7.40;4.10;;;10.40;99.90;;;;;;5071134;28;20045;-78
2024/03/28 09:28:27;;;;;;;7.80;4.57;;;10.40;99.90;;;;;;5063663;28;20076;-78
2024/03/28 09:30:56;;;;;;;10.80;4.45;;;10.40;99.90;;;;;;5060183;28;20404;-78
2024/03/28 09:33:21;;;;;;;7.93;4.45;;;10.40;99.90;;;;;;5071107;28;20623;-78
2024/03/28 09:35:47;;;;;;;6.55;4.03;;;10.40;99.90;;;;;;5046064;28;20037;-78
2024/03/28 09:38:13;;;;;;;6.32;3.40;;;10.40;99.90;;;;;;5066274;28;20031;-78
2024/03/28 09:40:52;;;;;;;5.45;3.63;;;10.40;99.90;;;;;;5037767;28;20495;-78
2024/03/28 09:43:18;;;;;;;7.78;3.55;;;10.40;99.90;;;;;;5045933;28;20041;-78
2024/03/28 09:45:44;;;;;;;5.78;3.50;;;10.40;99.90;;;;;;5068595;28;20451;-78
2024/03/28 09:48:15;;;;;;;5.38;3.30;;;10.70;99.90;;;;;;5057995;28;20040;-78
2024/03/28 09:50:42;;;;;;;5.03;3.15;;;10.50;99.90;;;;;;5050411;28;20115;-78
2024/03/28 09:53:11;;;;;;;5.18;3.05;;;10.50;99.90;;;;;;5048157;28;20047;-78
2024/03/28 09:55:40;;;;;;;6.82;3.63;;;10.40;99.90;;;;;;5069211;28;20120;-78
2024/03/28 09:58:09;;;;;;;4.80;3.60;;;10.40;99.90;;;;;;5056210;28;20504;-78
2024/03/28 10:00:36;;;;;;;9.48;3.42;;;10.30;99.90;;;;;;5066597;28;20059;-79
2024/03/28 10:03:04;;;;;;;5.45;3.65;;;10.30;99.90;;;;;;5055671;28;20374;-78
2024/03/28 10:05:32;;;;;;;5.25;3.00;;;10.20;99.90;;;;;;5066340;28;20047;-78
2024/03/28 10:07:57;;;;;;;5.13;3.03;;;10.20;99.90;;;;;;5058743;28;20041;-78
2024/03/28 10:10:26;;;;;;;7.20;3.30;;;10.10;99.90;;;;;;5057394;28;20489;-78
2024/03/28 10:12:56;;;;;;;5.05;2.90;;;10.00;99.90;;;;;;5044365;28;20402;-78
2024/03/28 10:15:21;;;;;;;5.60;3.20;;;10.00;99.90;;;;;;5056455;28;20116;-78
2024/03/28 10:18:02;;;;;;;6.18;3.22;;;9.80;99.90;;;;;;5044537;28;20123;-78
2024/03/28 10:20:28;;;;;;;5.28;3.58;;;9.80;99.90;;;;;;5055388;28;20094;-78
2024/03/28 10:22:54;;;;;;;7.22;4.13;;;9.70;99.90;;;;;;5059058;28;20037;-78
2024/03/28 10:25:21;;;;;;;5.82;3.53;;;9.60;99.90;;;;;;5036872;28;20052;-78
2024/03/28 10:27:47;;;;;;;6.88;4.05;;;9.50;99.90;;;;;;5039436;28;20128;-77
2024/03/28 10:30:20;;;;;;;5.80;2.53;;;9.50;99.90;;;;;;5035816;28;20037;-78
2024/03/28 10:32:46;;;;;;;5.57;2.58;;;9.40;99.90;;;;;;5047630;28;20040;-78
2024/03/28 10:35:12;;;;;;;4.70;2.13;;;9.10;99.90;;;;;;5029354;28;20045;-78
2024/03/28 10:37:38;;;;;;;2.92;1.98;;;9.00;99.90;;;;;;5041012;28;20056;-78
2024/03/28 10:40:07;;;;;;;3.50;1.63;;;8.80;99.90;;;;;;5024695;28;20667;-78
2024/03/28 10:42:36;;;;;;;2.50;1.70;;;8.80;99.90;;;;;;5043853;28;20493;-78
2024/03/28 10:45:09;;;;;;;3.75;1.80;;;8.60;99.90;;;;;;5051991;28;20047;-77
2024/03/28 10:47:36;;;;;;;4.13;1.67;;;8.50;99.90;;;;;;5049290;28;20056;-78
2024/03/28 10:50:17;;;;;;;4.95;1.95;;;8.50;99.90;;;;;;5051682;28;20072;-78
2024/03/28 10:52:50;;;;;;;3.45;2.38;;;8.40;99.90;;;;;;5039850;28;20044;-77
2024/03/28 10:55:22;;;;;;;4.10;2.20;;;8.30;99.90;;;;;;5034317;28;20044;-77
2024/03/28 10:57:48;;;;;;;4.75;2.30;;;8.20;99.90;;;;;;5055955;28;20041;-77
2024/03/28 11:00:15;;;;;;;3.38;2.30;;;8.20;99.90;;;;;;5058740;28;20116;-77
2024/03/28 11:02:43;;;;;;;3.17;2.30;;;8.20;99.90;;;;;;5054087;28;20037;-77
2024/03/28 11:05:08;;;;;;;4.78;2.35;;;8.10;99.90;;;;;;5043750;28;20394;-77
2024/03/28 11:07:35;;;;;;;3.50;2.50;;;8.10;99.90;;;;;;5041939;28;20051;-77
2024/03/28 11:10:01;;;;;;;3.97;2.80;;;8.20;99.90;;;;;;5060638;28;20044;-77
2024/03/28 11:12:27;;;;;;;4.50;2.80;;;8.20;99.90;;;;;;5047403;28;20235;-77
2024/03/28 11:14:54;;;;;;;4.30;3.03;;;8.20;99.90;;;;;;5024914;28;20057;-77
2024/03/28 11:17:21;;;;;;;3.55;2.92;;;8.20;99.90;;;;;;5045753;28;20124;-77
2024/03/28 11:19:57;;;;;;;4.97;2.60;;;8.30;99.90;;;;;;5061740;28;20032;-77
2024/03/28 11:22:23;;;;;;;3.58;2.38;;;8.30;99.90;;;;;;5065801;28;20051;-77
2024/03/28 11:24:48;;;;;;;4.50;1.92;;;8.30;99.90;;;;;;5047357;28;20648;-77
2024/03/28 11:27:20;;;;;;;2.20;1.52;;;8.30;99.90;;;;;;5032919;28;20028;-78
2024/03/28 11:29:46;;;;;;;4.22;1.55;;;8.30;99.90;;;;;;5045707;28;20037;-78
2024/03/28 11:32:21;;;;;;;2.65;1.58;;;8.30;99.90;;;;;;5024948;28;20033;-78
2024/03/28 11:34:47;;;;;;;1.55;1.40;;;8.20;99.90;;;;;;5048369;28;20093;-78
2024/03/28 11:37:19;;;;;;;1.55;1.35;;;8.20;99.90;;;;;;5066828;28;20119;-78
2024/03/28 11:39:45;;;;;;;;;;;8.70;99.90;;;;;;5049274;28;20485;-78
2024/03/28 11:42:15;;;;;;;2.05;1.40;;;8.50;99.90;;;;;;5054070;28;20002;-78
2024/03/28 11:44:41;;;;;;;1.52;1.40;;;8.20;99.90;;;;;;5058672;28;20057;-78
2024/03/28 11:47:08;;;;;;;2.25;1.40;;;8.20;99.90;;;;;;5073206;28;20119;-78
2024/03/28 11:49:34;;;;;;;1.58;1.38;;;8.20;99.90;;;;;;5045934;28;20045;-78
2024/03/28 11:52:00;;;;;;;2.85;1.55;;;8.20;99.90;;;;;;5058717;28;20037;-78
2024/03/28 11:54:27;;;;;;;2.50;1.55;;;8.40;99.90;;;;;;5053670;28;20072;-78
2024/03/28 11:56:52;;;;;;;3.10;1.35;;;8.40;99.90;;;;;;5050332;28;20123;-78
2024/03/28 11:59:19;;;;;;;4.10;1.40;;;8.60;99.90;;;;;;5046611;28;20572;-78
2024/03/28 12:01:46;;;;;;;1.80;1.25;;;8.20;99.90;;;;;;5049315;28;20052;-78
2024/03/28 12:04:21;;;;;;;1.75;1.38;;;8.20;99.90;;;;;;5063638;28;20044;-78
2024/03/28 12:06:47;;;;;;;2.72;1.45;;;8.20;99.90;;;;;;5073117;28;20055;-78
2024/03/28 12:09:13;;;;;;;2.20;1.40;;;8.20;99.90;;;;;;5028186;28;20043;-78
2024/03/28 12:11:39;;;;;;;2.25;1.40;;;8.20;99.90;;;;;;5037924;28;20032;-78
2024/03/28 12:14:04;;;;;;;2.05;1.38;;;8.20;99.90;;;;;;5053776;28;20404;-78
2024/03/28 12:16:30;;;;;;;2.78;1.20;;;8.30;99.90;;;;;;5054853;28;20044;-78
2024/03/28 12:19:03;;;;;;;1.65;1.40;;;8.30;99.90;;;;;;5055038;28;20103;-78
2024/03/28 12:21:29;;;;;;;3.85;1.60;;;8.20;99.90;;;;;;5045085;28;20048;-78
2024/03/28 12:23:55;;;;;;;4.38;1.50;;;8.30;99.90;;;;;;5048535;28;20036;-78
2024/03/28 12:26:21;;;;;;;1.67;1.27;;;8.30;99.90;;;;;;5047006;28;20083;-78
2024/03/28 12:28:47;;;;;;;1.90;1.42;;;8.30;99.90;;;;;;5046770;28;20446;-78
2024/03/28 12:31:23;;;;;;;1.98;1.30;;;8.30;99.90;;;;;;5043422;28;20066;-78
2024/03/28 12:33:53;;;;;;;3.13;1.40;;;8.30;99.90;;;;;;5051402;28;20113;-78
2024/03/28 12:36:19;;;;;;;2.85;1.48;;;8.40;99.90;;;;;;4989544;28;20080;-75
2024/03/28 12:38:50;;;;;;;2.85;1.50;;;8.40;99.90;;;;;;5008059;28;20089;-74
2024/03/28 12:41:20;;;;;;;2.83;1.40;;;8.40;99.90;;;;;;4992699;28;20038;-75
2024/03/28 12:44:00;;;;;;;4.43;1.80;;;8.40;99.90;;;;;;4998196;28;20037;-75
2024/03/28 12:46:26;;;;;;;2.50;1.38;;;8.50;99.90;;;;;;4983582;28;20125;-75